Fairhaven, Washington
Current Conditions -  °F | °C
As of 2:53 AM on Wednesday 26 Nov 2014 (Local Time) from KBLI Reporting Station
Overcast Overcast  
Wind Chill: 35°   Ceiling: 300
Heat Index: 41°   Visibility: 7mi
Dew Point: 39°   Wind: 10mph
Humidity: 93%   Direction: 30°NNE
Pressure: 30.11"   Gusts: NA
Location:  48.7531°N, 122.502°W
Report Text: KBLI 261053Z AUTO 03009KT 7SM BKN003 OVC006 05/04 A3011 RMK AO2 RAB0956E15 SLP205 P0001 T00500039
Loading
Personal Weather Stations






























Interactive Weather Map New forecast layout! Learn more

10-Day Weather Forecast

Advertisements
Track Severe Weather on mobile